Terminal Aerodrome Forecast
Issued by NWS Paducah, KY

Home | Current Version | Previous Version | Text Only | Print | Product List | Glossary Off
Versions: 1 2 3 4 5 6 7 8 9 10 11 12 13 14 15 16 17 18

000
FTUS43 KPAH 191510 AAA
TAFEVV
TAF AMD
KEVV 191510Z 1915/2012 11005KT P6SM VCSH BKN030 OVC080
     FM191545 09005KT P6SM -SHRA OVC030
     FM191700 08006KT 3SM SHRA BR OVC009
     FM200300 11007KT 4SM BR VCSH OVC006=

USA.gov is the U.S. government's official web portal to all federal, state and local government web resources and services.